Time;durP1;ratioP1;P1;durP2;ratioP2;P2;SDS_P1;SDS_P2;PMS_P1;PMS_P2;Temp;Humidity;BMP_temperature;BMP_pressure;BME280_temperature;BME280_humidity;BME280_pressure;Samples;Min_cycle;Max_cycle;Signal;HPM_P1;HPM_P2
2023/07/25 00:00:42;;;;;;;;;;;24.50;99.90;;;;;;6024663;23;19928;-71
2023/07/25 00:03:08;;;;;;;;;;;24.50;99.60;;;;;;6025985;23;19930;-71
2023/07/25 00:05:34;;;;;;;;;;;24.50;99.40;;;;;;6024333;23;20350;-71
2023/07/25 00:07:59;;;;;;;;;;;24.50;99.90;;;;;;6025557;23;19932;-72
2023/07/25 00:10:25;;;;;;;;;;;24.40;99.90;;;;;;6026510;23;20295;-72
2023/07/25 00:12:53;;;;;;;;;;;24.30;99.90;;;;;;6027121;23;19952;-71
2023/07/25 00:15:18;;;;;;;;;;;24.30;99.90;;;;;;6025267;23;19971;-72
2023/07/25 00:17:44;;;;;;;;;;;24.20;99.90;;;;;;6027427;23;19936;-72
2023/07/25 00:20:09;;;;;;;;;;;24.20;99.90;;;;;;6025909;23;19991;-71
2023/07/25 00:22:35;;;;;;;;;;;24.20;99.90;;;;;;6026138;23;20371;-72
2023/07/25 00:25:00;;;;;;;;;;;24.20;99.90;;;;;;6025361;23;19982;-71
2023/07/25 00:27:26;;;;;;;;;;;24.20;99.90;;;;;;6024802;23;20054;-71
2023/07/25 00:29:51;;;;;;;;;;;24.20;99.90;;;;;;6022579;23;19967;-72
2023/07/25 00:32:17;;;;;;;;;;;24.20;99.90;;;;;;6023967;23;19932;-71
2023/07/25 00:34:42;;;;;;;;;;;24.20;99.90;;;;;;6025091;23;19967;-73
2023/07/25 00:37:08;;;;;;;;;;;24.10;99.90;;;;;;6025045;23;19927;-72
2023/07/25 00:39:33;;;;;;;;;;;24.10;99.90;;;;;;6025093;23;19935;-72
2023/07/25 00:41:59;;;;;;;;;;;24.10;99.90;;;;;;6024300;23;19940;-72
2023/07/25 00:44:24;;;;;;;;;;;24.10;99.90;;;;;;6025204;23;19973;-72
2023/07/25 00:46:50;;;;;;;;;;;24.10;99.80;;;;;;6024786;23;19925;-72
2023/07/25 00:49:15;;;;;;;;;;;24.10;99.70;;;;;;6028145;23;19929;-72
2023/07/25 00:51:41;;;;;;;;;;;24.10;99.70;;;;;;6025328;23;19922;-73
2023/07/25 00:54:06;;;;;;;;;;;24.10;99.50;;;;;;6027918;23;20437;-73
2023/07/25 00:56:32;;;;;;;;;;;24.10;99.10;;;;;;6026870;23;20013;-72
2023/07/25 00:58:57;;;;;;;;;;;24.10;99.30;;;;;;6027259;23;19931;-72
2023/07/25 01:01:23;;;;;;;;;;;24.10;99.60;;;;;;6024758;23;19926;-73
2023/07/25 01:03:49;;;;;;;;;;;24.10;99.60;;;;;;6025760;23;19962;-73
2023/07/25 01:06:15;;;;;;;;;;;24.00;99.70;;;;;;6025735;23;19956;-73
2023/07/25 01:08:50;;;;;;;;;;;24.00;99.80;;;;;;6027474;23;19991;-72
2023/07/25 01:11:16;;;;;;;;;;;23.90;99.70;;;;;;6028690;23;19934;-71
2023/07/25 01:13:42;;;;;;;;;;;23.90;99.80;;;;;;6026174;23;20369;-71
2023/07/25 01:16:09;;;;;;;;;;;23.90;99.40;;;;;;6025894;23;20032;-71
2023/07/25 01:18:35;;;;;;;;;;;23.90;99.10;;;;;;6027815;23;19936;-71
2023/07/25 01:21:01;;;;;;;;;;;24.00;99.10;;;;;;6028182;23;19926;-71
2023/07/25 01:23:27;;;;;;;;;;;24.00;99.00;;;;;;6026303;23;20373;-71
2023/07/25 01:25:52;;;;;;;;;;;24.00;99.10;;;;;;6026166;23;20280;-71
2023/07/25 01:28:18;;;;;;;;;;;24.00;98.90;;;;;;6027624;23;20035;-71
2023/07/25 01:30:43;;;;;;;;;;;24.00;99.00;;;;;;6025546;23;20422;-71
2023/07/25 01:33:09;;;;;;;;;;;24.10;99.00;;;;;;6026460;23;19959;-71
2023/07/25 01:35:35;;;;;;;;;;;24.10;99.50;;;;;;6027173;23;19931;-71
2023/07/25 01:38:00;;;;;;;;;;;24.10;99.90;;;;;;6026938;23;19964;-71
2023/07/25 01:40:26;;;;;;;;;;;24.00;99.90;;;;;;6025741;23;19980;-70
2023/07/25 01:42:51;;;;;;;;;;;23.80;99.90;;;;;;6027218;23;19924;-70
2023/07/25 01:45:17;;;;;;;;;;;23.70;99.90;;;;;;6024736;23;19935;-70
2023/07/25 01:47:42;;;;;;;;;;;23.60;99.90;;;;;;5998122;23;20011;-70
2023/07/25 01:50:08;;;;;;;;;;;23.50;99.90;;;;;;6027126;23;19927;-70
2023/07/25 01:52:34;;;;;;;;;;;23.40;99.90;;;;;;6026598;23;19935;-71
2023/07/25 01:54:59;;;;;;;;;;;23.30;99.90;;;;;;6026528;23;20013;-70
2023/07/25 01:57:25;;;;;;;;;;;23.30;99.90;;;;;;6025837;23;20339;-70
2023/07/25 01:59:51;;;;;;;;;;;23.30;99.90;;;;;;6025148;23;20332;-70
2023/07/25 02:02:17;;;;;;;;;;;23.20;99.90;;;;;;6025633;23;19976;-70
2023/07/25 02:04:42;;;;;;;;;;;23.20;99.90;;;;;;6026928;23;19980;-71
2023/07/25 02:07:08;;;;;;;;;;;23.20;99.90;;;;;;6027591;23;19930;-80
2023/07/25 02:09:33;;;;;;;;;;;23.20;99.90;;;;;;6002188;23;19937;-77
2023/07/25 02:12:00;;;;;;;;;;;23.20;99.90;;;;;;6028256;23;19931;-79
2023/07/25 02:14:25;;;;;;;;;;;23.30;99.90;;;;;;6029537;23;20011;-77
2023/07/25 02:16:51;;;;;;;;;;;23.30;99.90;;;;;;6024833;23;20033;-76
2023/07/25 02:19:16;;;;;;;;;;;23.30;99.90;;;;;;6027885;23;19931;-75
2023/07/25 02:21:42;;;;;;;;;;;23.30;99.90;;;;;;6023225;23;20305;-76
2023/07/25 02:24:07;;;;;;;;;;;23.30;99.90;;;;;;6024508;23;19923;-78
2023/07/25 02:26:33;;;;;;;;;;;23.30;99.90;;;;;;6025654;23;19936;-79
2023/07/25 02:28:58;;;;;;;;;;;23.30;99.90;;;;;;6024705;23;20349;-78
2023/07/25 02:31:24;;;;;;;;;;;23.30;99.90;;;;;;6019518;23;20230;-77
2023/07/25 02:33:49;;;;;;;;;;;23.30;99.90;;;;;;6021446;23;20326;-78
2023/07/25 02:36:15;;;;;;;;;;;23.30;99.90;;;;;;6023185;23;20390;-78
2023/07/25 02:38:40;;;;;;;;;;;23.30;99.90;;;;;;6025462;23;19938;-78
2023/07/25 02:41:06;;;;;;;;;;;23.30;99.90;;;;;;6025185;23;20640;-78
2023/07/25 02:43:31;;;;;;;;;;;23.30;99.90;;;;;;6025251;23;19997;-78
2023/07/25 02:45:57;;;;;;;;;;;23.40;99.90;;;;;;6023785;23;20016;-78
2023/07/25 02:48:22;;;;;;;;;;;23.40;99.90;;;;;;6027053;23;20397;-78
2023/07/25 02:50:48;;;;;;;;;;;23.40;99.90;;;;;;6025252;23;19921;-78
2023/07/25 02:53:13;;;;;;;;;;;23.40;99.90;;;;;;6025614;23;19950;-78
2023/07/25 02:55:39;;;;;;;;;;;23.40;99.90;;;;;;6026623;23;19934;-78
2023/07/25 02:58:04;;;;;;;;;;;23.40;99.90;;;;;;6029014;23;20372;-80
2023/07/25 03:00:30;;;;;;;;;;;23.40;99.90;;;;;;6026604;23;19945;-70
2023/07/25 03:02:56;;;;;;;;;;;23.50;99.90;;;;;;6026559;23;19932;-70
2023/07/25 03:05:21;;;;;;;;;;;23.60;99.90;;;;;;6026192;23;19933;-70
2023/07/25 03:07:47;;;;;;;;;;;23.50;99.90;;;;;;6021479;23;20005;-70
2023/07/25 03:10:13;;;;;;;;;;;23.50;99.90;;;;;;6025315;23;19932;-70
2023/07/25 03:12:38;;;;;;;;;;;23.60;99.90;;;;;;6022277;23;20335;-71
2023/07/25 03:15:04;;;;;;;;;;;23.60;99.90;;;;;;6026613;23;19937;-70
2023/07/25 03:17:30;;;;;;;;;;;23.60;99.90;;;;;;6024857;23;19961;-71
2023/07/25 03:19:55;;;;;;;;;;;23.60;99.90;;;;;;6026206;23;19926;-70
2023/07/25 03:22:21;;;;;;;;;;;23.50;99.90;;;;;;6027214;23;19937;-78
2023/07/25 03:24:47;;;;;;;;;;;23.60;99.90;;;;;;6001238;23;20012;-78
2023/07/25 03:27:12;;;;;;;;;;;23.60;99.90;;;;;;6026376;23;20314;-78
2023/07/25 03:29:38;;;;;;;;;;;23.60;99.90;;;;;;6025729;23;20408;-78
2023/07/25 03:32:03;;;;;;;;;;;23.60;99.90;;;;;;6024543;23;20093;-78
2023/07/25 03:34:29;;;;;;;;;;;23.60;99.80;;;;;;6028357;23;19960;-79
2023/07/25 03:36:54;;;;;;;;;;;23.60;99.90;;;;;;6025039;23;19928;-80
2023/07/25 03:39:20;;;;;;;;;;;23.60;99.70;;;;;;6027505;23;20051;-78
2023/07/25 03:41:45;;;;;;;;;;;23.60;99.90;;;;;;6027157;23;20417;-80
2023/07/25 03:44:16;;;;;;;;;;;23.70;99.90;;;;;;6027682;23;19965;-81
2023/07/25 03:46:42;;;;;;;;;;;23.70;99.90;;;;;;6022775;23;20000;-80
2023/07/25 03:49:08;;;;;;;;;;;23.60;99.90;;;;;;6027117;23;19933;-79
2023/07/25 03:51:33;;;;;;;;;;;23.60;99.90;;;;;;6027005;23;20338;-78
2023/07/25 03:53:59;;;;;;;;;;;23.50;99.90;;;;;;6027660;23;20048;-79
2023/07/25 03:56:24;;;;;;;;;;;23.60;99.70;;;;;;6001901;23;19969;-78
2023/07/25 03:58:50;;;;;;;;;;;23.60;99.90;;;;;;6025774;23;19958;-79
2023/07/25 04:01:15;;;;;;;;;;;23.60;99.70;;;;;;6024300;23;20322;-79
2023/07/25 04:03:41;;;;;;;;;;;23.70;97.70;;;;;;5999079;23;19929;-78
2023/07/25 04:06:06;;;;;;;;;;;23.80;99.20;;;;;;6024585;23;20102;-79
2023/07/25 04:08:32;;;;;;;;;;;23.80;99.90;;;;;;6025679;23;20239;-78
2023/07/25 04:10:57;;;;;;;;;;;23.70;99.90;;;;;;6028313;23;19962;-80
2023/07/25 04:13:23;;;;;;;;;;;23.60;99.90;;;;;;6023931;23;20031;-79
2023/07/25 04:15:48;;;;;;;;;;;23.50;99.90;;;;;;6022612;23;19933;-70
2023/07/25 04:18:14;;;;;;;;;;;23.50;99.90;;;;;;6026694;23;20362;-71
2023/07/25 04:20:39;;;;;;;;;;;23.50;99.90;;;;;;6026534;23;20283;-71
2023/07/25 04:23:05;;;;;;;;;;;23.50;99.90;;;;;;6026177;23;20004;-71
2023/07/25 04:25:30;;;;;;;;;;;23.50;99.90;;;;;;6027049;23;19966;-71
2023/07/25 04:27:56;;;;;;;;;;;23.50;99.90;;;;;;6027424;23;20009;-71
2023/07/25 04:30:21;;;;;;;;;;;23.50;99.90;;;;;;6023652;23;20338;-71
2023/07/25 04:32:47;;;;;;;;;;;23.50;99.90;;;;;;6025762;23;19924;-71
2023/07/25 04:35:12;;;;;;;;;;;23.50;99.90;;;;;;6026538;23;19945;-70
2023/07/25 04:37:38;;;;;;;;;;;23.60;99.90;;;;;;6027055;23;20011;-71
2023/07/25 04:40:03;;;;;;;;;;;23.60;99.90;;;;;;6026186;23;19922;-71
2023/07/25 04:42:29;;;;;;;;;;;23.60;99.90;;;;;;6024531;23;19943;-71
2023/07/25 04:44:54;;;;;;;;;;;23.60;99.90;;;;;;6023335;23;19967;-69
2023/07/25 04:47:20;;;;;;;;;;;23.50;99.90;;;;;;6025588;23;19928;-69
2023/07/25 04:49:45;;;;;;;;;;;23.40;99.90;;;;;;6020964;23;20018;-69
2023/07/25 04:52:11;;;;;;;;;;;23.40;99.90;;;;;;6025131;23;19943;-69
2023/07/25 04:54:36;;;;;;;;;;;23.40;99.90;;;;;;6024960;23;19948;-69
2023/07/25 04:57:02;;;;;;;;;;;23.50;99.90;;;;;;6001899;23;19963;-69
2023/07/25 04:59:28;;;;;;;;;;;23.50;99.90;;;;;;6025385;23;19932;-69
2023/07/25 05:01:53;;;;;;;;;;;23.70;99.90;;;;;;6023089;23;20342;-69
2023/07/25 05:04:19;;;;;;;;;;;23.70;99.90;;;;;;6021706;23;19995;-69
2023/07/25 05:06:44;;;;;;;;;;;23.80;99.90;;;;;;6019804;23;19930;-69
2023/07/25 05:09:10;;;;;;;;;;;23.80;99.90;;;;;;6026267;23;19973;-71
2023/07/25 05:11:35;;;;;;;;;;;23.80;99.90;;;;;;6000413;23;20359;-80
2023/07/25 05:14:01;;;;;;;;;;;23.90;99.90;;;;;;6025959;23;20625;-79
2023/07/25 05:16:26;;;;;;;;;;;23.90;99.90;;;;;;5999111;23;19939;-79
2023/07/25 05:18:52;;;;;;;;;;;24.00;99.90;;;;;;5999631;23;20253;-79
2023/07/25 05:21:17;;;;;;;;;;;24.00;99.90;;;;;;6025200;23;19928;-79
2023/07/25 05:23:43;;;;;;;;;;;24.10;99.90;;;;;;6026680;23;19930;-79
2023/07/25 05:26:08;;;;;;;;;;;24.20;99.90;;;;;;6026384;23;19931;-80
2023/07/25 05:28:34;;;;;;;;;;;24.30;99.90;;;;;;6027405;23;20231;-79
2023/07/25 05:30:59;;;;;;;;;;;24.40;99.90;;;;;;6024871;23;19914;-79
2023/07/25 05:33:25;;;;;;;;;;;24.50;99.90;;;;;;6027604;23;19963;-79
2023/07/25 05:35:58;;;;;;;;;;;24.50;99.90;;;;;;6028523;23;20254;-79
2023/07/25 05:38:23;;;;;;;;;;;24.50;99.90;;;;;;6028711;23;19963;-79
2023/07/25 05:40:49;;;;;;;;;;;24.50;99.90;;;;;;6027798;23;19956;-79
2023/07/25 05:43:16;;;;;;;;;;;24.50;99.90;;;;;;6026180;23;19954;-79
2023/07/25 05:45:42;;;;;;;;;;;24.60;99.90;;;;;;6027629;23;19925;-79
2023/07/25 05:48:07;;;;;;;;;;;24.60;99.90;;;;;;6027601;23;20260;-79
2023/07/25 05:50:33;;;;;;;;;;;24.70;99.90;;;;;;6028963;23;19928;-79
2023/07/25 05:52:58;;;;;;;;;;;24.80;99.90;;;;;;6026633;23;19922;-80
2023/07/25 05:55:23;;;;;;;;;;;24.90;99.90;;;;;;6026578;23;19986;-75
2023/07/25 05:57:49;;;;;;;;;;;25.00;99.90;;;;;;6022348;23;19934;-79
2023/07/25 06:00:15;;;;;;;;;;;25.10;99.90;;;;;;6000524;23;19964;-77
2023/07/25 06:02:40;;;;;;;;;;;25.20;99.90;;;;;;6027245;23;19929;-76
2023/07/25 06:05:06;;;;;;;;;;;25.30;99.90;;;;;;6026524;23;20488;-77
2023/07/25 06:07:32;;;;;;;;;;;25.50;99.90;;;;;;6022416;23;20032;-77
2023/07/25 06:09:57;;;;;;;;;;;25.50;99.90;;;;;;6023487;23;20130;-77
2023/07/25 06:12:23;;;;;;;;;;;25.50;99.90;;;;;;6027785;23;20023;-78
2023/07/25 06:14:49;;;;;;;;;;;25.60;99.90;;;;;;6024537;23;20290;-79
2023/07/25 06:17:15;;;;;;;;;;;25.50;99.90;;;;;;6025981;23;20032;-80
2023/07/25 06:19:40;;;;;;;;;;;25.50;99.90;;;;;;6017547;23;20767;-80
2023/07/25 06:22:06;;;;;;;;;;;25.50;99.90;;;;;;6020097;23;19953;-79
2023/07/25 06:24:31;;;;;;;;;;;25.60;99.90;;;;;;6027573;23;19927;-79
2023/07/25 06:26:57;;;;;;;;;;;25.60;99.90;;;;;;6028065;23;19928;-78
2023/07/25 06:29:22;;;;;;;;;;;25.60;99.90;;;;;;6017676;23;19924;-77
2023/07/25 06:31:48;;;;;;;;;;;25.60;99.90;;;;;;6019037;23;20003;-78
2023/07/25 06:34:13;;;;;;;;;;;25.70;99.90;;;;;;6023722;23;19959;-78
2023/07/25 06:36:39;;;;;;;;;;;25.80;99.90;;;;;;6023045;23;20003;-77
2023/07/25 06:39:04;;;;;;;;;;;25.80;99.90;;;;;;6023867;23;20330;-78
2023/07/25 06:41:30;;;;;;;;;;;25.90;99.90;;;;;;6023512;23;20755;-78
2023/07/25 06:43:55;;;;;;;;;;;25.90;99.90;;;;;;6022164;23;19958;-78
2023/07/25 06:46:24;;;;;;;;;;;25.90;99.90;;;;;;6022522;23;19927;-71
2023/07/25 06:48:53;;;;;;;;;;;26.10;99.90;;;;;;6021678;23;20453;-71
2023/07/25 06:51:19;;;;;;;;;;;26.10;99.90;;;;;;6021059;23;19930;-71
2023/07/25 06:53:44;;;;;;;;;;;26.10;99.90;;;;;;6024521;23;19952;-71
2023/07/25 06:56:10;;;;;;;;;;;26.30;99.90;;;;;;6023532;23;20036;-70
2023/07/25 06:58:35;;;;;;;;;;;26.30;99.90;;;;;;6025321;23;20375;-79
2023/07/25 07:01:01;;;;;;;;;;;26.40;99.90;;;;;;6022386;23;19938;-70
2023/07/25 07:03:26;;;;;;;;;;;26.50;99.90;;;;;;6026187;23;20060;-70
2023/07/25 07:05:55;;;;;;;;;;;26.60;99.20;;;;;;6021098;23;19928;-70
2023/07/25 07:08:21;;;;;;;;;;;26.60;99.30;;;;;;5996141;23;19928;-70
2023/07/25 07:10:50;;;;;;;;;;;26.50;98.70;;;;;;6024029;23;19991;-70
2023/07/25 07:13:16;;;;;;;;;;;26.50;99.10;;;;;;6026389;23;19948;-70
2023/07/25 07:15:44;;;;;;;;;;;26.50;99.80;;;;;;6022452;23;19951;-70
2023/07/25 07:18:09;;;;;;;;;;;26.60;99.90;;;;;;6025466;23;20257;-69
2023/07/25 07:20:35;;;;;;;;;;;26.60;98.80;;;;;;6025627;23;19924;-70
2023/07/25 07:23:00;;;;;;;;;;;26.60;99.10;;;;;;6023171;23;19930;-70
2023/07/25 07:25:26;;;;;;;;;;;26.70;99.70;;;;;;6026617;23;19933;-74
2023/07/25 07:27:52;;;;;;;;;;;26.70;97.50;;;;;;6024256;23;20301;-72
2023/07/25 07:30:17;;;;;;;;;;;26.60;97.50;;;;;;6022249;23;20010;-70
2023/07/25 07:32:43;;;;;;;;;;;26.60;98.20;;;;;;6024053;23;19957;-70
2023/07/25 07:35:08;;;;;;;;;;;26.60;98.90;;;;;;6026111;23;19957;-70
2023/07/25 07:37:34;;;;;;;;;;;26.60;98.30;;;;;;6028804;23;20204;-70
2023/07/25 07:39:59;;;;;;;;;;;26.70;99.20;;;;;;6023482;23;20454;-77
2023/07/25 07:42:25;;;;;;;;;;;26.80;99.20;;;;;;6028317;23;19963;-77
2023/07/25 07:44:50;;;;;;;;;;;26.80;98.80;;;;;;6023988;23;20047;-76
2023/07/25 07:47:16;;;;;;;;;;;26.90;99.00;;;;;;6027583;23;20394;-77
2023/07/25 07:49:42;;;;;;;;;;;26.90;99.00;;;;;;6024131;23;20283;-77
2023/07/25 07:52:07;;;;;;;;;;;26.90;98.60;;;;;;6019461;23;19958;-76
2023/07/25 07:54:33;;;;;;;;;;;26.90;99.60;;;;;;6026765;23;20559;-76
2023/07/25 07:56:58;;;;;;;;;;;26.90;98.40;;;;;;6027816;23;19926;-70
2023/07/25 07:59:24;;;;;;;;;;;27.00;97.90;;;;;;6026417;23;19987;-70
2023/07/25 08:01:49;;;;;;;;;;;26.90;99.60;;;;;;6022667;23;20237;-70
2023/07/25 08:04:15;;;;;;;;;;;26.90;97.40;;;;;;6019937;23;19922;-70
2023/07/25 08:06:40;;;;;;;;;;;26.80;97.20;;;;;;6025115;23;19924;-70
2023/07/25 08:09:08;;;;;;;;;;;26.70;97.70;;;;;;6026441;23;20433;-69
2023/07/25 08:11:33;;;;;;;;;;;26.60;97.50;;;;;;6025604;23;20328;-70
2023/07/25 08:13:59;;;;;;;;;;;26.40;98.10;;;;;;6023175;23;19992;-70
2023/07/25 08:16:24;;;;;;;;;;;26.30;99.20;;;;;;6021981;23;19963;-70
2023/07/25 08:18:50;;;;;;;;;;;26.30;99.90;;;;;;6024583;23;19934;-70
2023/07/25 08:21:15;;;;;;;;;;;26.30;99.60;;;;;;6020158;23;20028;-70
2023/07/25 08:23:41;;;;;;;;;;;26.20;99.90;;;;;;6025380;23;19980;-70
2023/07/25 08:26:06;;;;;;;;;;;26.10;99.90;;;;;;6027292;23;19924;-69
2023/07/25 08:28:32;;;;;;;;;;;26.10;99.90;;;;;;6022582;23;19926;-70
2023/07/25 08:31:01;;;;;;;;;;;26.00;99.90;;;;;;6025749;23;19927;-70
2023/07/25 08:33:28;;;;;;;;;;;25.90;99.90;;;;;;6026822;23;20294;-70
2023/07/25 08:35:54;;;;;;;;;;;25.90;99.90;;;;;;6021654;23;20908;-70
2023/07/25 08:38:20;;;;;;;;;;;25.80;99.90;;;;;;6020730;23;19941;-71
2023/07/25 08:40:46;;;;;;;;;;;25.60;99.90;;;;;;6020049;23;19926;-70
2023/07/25 08:43:13;;;;;;;;;;;25.40;99.90;;;;;;6020328;23;19951;-70
2023/07/25 08:45:40;;;;;;;;;;;25.20;99.90;;;;;;6020757;23;19978;-71
2023/07/25 08:48:08;;;;;;;;;;;25.00;99.90;;;;;;6026061;23;19935;-71
2023/07/25 08:50:35;;;;;;;;;;;24.90;99.90;;;;;;6024809;23;19926;-72
2023/07/25 08:53:04;;;;;;;;;;;24.80;99.90;;;;;;6023416;23;19931;-69
2023/07/25 08:55:30;;;;;;;;;;;24.60;99.90;;;;;;6023760;23;19939;-74
2023/07/25 08:57:55;;;;;;;;;;;24.50;99.90;;;;;;6023733;23;19937;-71
2023/07/25 09:00:21;;;;;;;;;;;24.30;99.90;;;;;;6025415;23;19926;-76
2023/07/25 09:02:47;;;;;;;;;;;23.80;99.90;;;;;;6027425;23;19929;-80
2023/07/25 09:05:12;;;;;;;;;;;23.40;99.90;;;;;;6026184;23;19931;-75
2023/07/25 09:07:38;;;;;;;;;;;23.20;99.90;;;;;;6027372;23;20001;-75
2023/07/25 09:10:04;;;;;;;;;;;23.10;99.90;;;;;;6027940;23;19937;-78
2023/07/25 09:12:29;;;;;;;;;;;23.10;99.90;;;;;;6028872;23;19945;-82
2023/07/25 09:14:55;;;;;;;;;;;23.10;99.90;;;;;;6029375;23;19950;-77
2023/07/25 09:17:21;;;;;;;;;;;23.00;99.90;;;;;;6029550;23;20001;-78
2023/07/25 09:19:47;;;;;;;;;;;23.00;99.90;;;;;;6026891;23;19968;-77
2023/07/25 09:22:26;;;;;;;;;;;22.90;99.90;;;;;;6028634;23;19938;-81
2023/07/25 09:24:52;;;;;;;;;;;22.80;99.90;;;;;;6024824;23;19923;-81
2023/07/25 09:27:17;;;;;;;;;;;22.70;99.90;;;;;;6027366;23;20008;-78
2023/07/25 09:29:43;;;;;;;;;;;22.50;99.90;;;;;;6025794;23;19926;-70
2023/07/25 09:32:19;;;;;;;;;;;22.40;99.90;;;;;;6026320;23;19925;-70
2023/07/25 09:34:46;;;;;;;;;;;22.30;99.90;;;;;;6024939;23;19953;-71
2023/07/25 09:37:14;;;;;;;;;;;22.20;99.90;;;;;;6026591;23;19924;-70
2023/07/25 09:39:41;;;;;;;;;;;22.00;99.90;;;;;;6025150;23;19960;-70
2023/07/25 09:42:07;;;;;;;;;;;21.90;99.90;;;;;;6026287;23;19983;-70
2023/07/25 09:44:33;;;;;;;;;;;21.80;99.90;;;;;;6025652;23;19994;-71
2023/07/25 09:46:58;;;;;;;;;;;21.80;99.90;;;;;;6024081;23;19929;-70
2023/07/25 09:49:25;;;;;;;;;;;21.80;99.90;;;;;;6025364;23;20004;-70
2023/07/25 09:51:59;;;;;;;;;;;21.80;99.90;;;;;;6023555;23;19938;-71
2023/07/25 09:54:25;;;;;;;;;;;21.80;99.90;;;;;;6023752;23;19952;-70
2023/07/25 09:56:51;;;;;;;;;;;21.90;99.90;;;;;;6022009;23;19930;-70
2023/07/25 09:59:16;;;;;;;;;;;21.90;99.90;;;;;;6023219;23;19925;-71
2023/07/25 10:01:42;;;;;;;;;;;21.90;99.90;;;;;;6023389;23;19929;-71
2023/07/25 10:04:08;;;;;;;;;;;21.90;99.90;;;;;;6023490;23;19929;-70
2023/07/25 10:06:35;;;;;;;;;;;21.90;99.90;;;;;;6024836;23;19931;-69
2023/07/25 10:09:01;;;;;;;;;;;21.90;99.90;;;;;;6025072;23;19938;-73
2023/07/25 10:11:27;;;;;;;;;;;21.90;99.90;;;;;;6025180;23;19936;-71
2023/07/25 10:13:53;;;;;;;;;;;22.00;99.90;;;;;;6023420;23;19991;-71
2023/07/25 10:16:19;;;;;;;;;;;21.90;99.90;;;;;;6024725;23;19962;-71
2023/07/25 10:18:51;;;;;;;;;;;21.90;99.90;;;;;;6025108;23;19927;-71
2023/07/25 10:21:17;;;;;;;;;;;21.80;99.90;;;;;;6000508;23;20272;-70
2023/07/25 10:23:42;;;;;;;;;;;21.70;99.90;;;;;;6024133;23;19930;-71
2023/07/25 10:26:16;;;;;;;;;;;21.70;99.90;;;;;;6023831;23;19939;-71
2023/07/25 10:28:41;;;;;;;;;;;21.80;99.90;;;;;;5998296;23;19984;-70
2023/07/25 10:31:08;;;;;;;;;;;21.80;99.90;;;;;;6023189;23;19934;-71
2023/07/25 10:33:38;;;;;;;;;;;21.80;99.90;;;;;;6024538;23;20393;-71
2023/07/25 10:36:03;;;;;;;;;;;21.80;99.90;;;;;;6024667;23;20363;-70
2023/07/25 10:38:32;;;;;;;;;;;21.80;99.90;;;;;;6024832;23;19957;-71
2023/07/25 10:41:00;;;;;;;;;;;21.80;99.90;;;;;;6022861;23;20006;-71
2023/07/25 10:43:49;;;;;;;;;;;21.90;99.90;;;;;;6023802;23;19966;-70
2023/07/25 10:46:41;;;;;;;;;;;21.90;99.90;;;;;;6013163;23;19938;-71
2023/07/25 10:49:15;;;;;;;;;;;22.00;99.90;;;;;;6038690;23;19934;-70
2023/07/25 10:51:45;;;;;;;;;;;22.10;99.90;;;;;;6025060;23;19930;-71
2023/07/25 10:54:14;;;;;;;;;;;22.20;99.90;;;;;;6025428;23;19950;-70
2023/07/25 10:56:40;;;;;;;;;;;22.10;99.90;;;;;;6026222;23;19953;-70
2023/07/25 10:59:05;;;;;;;;;;;22.10;99.90;;;;;;6026035;23;19966;-70
2023/07/25 11:01:51;;;;;;;;;;;22.20;99.90;;;;;;6025283;23;19964;-71
2023/07/25 11:04:27;;;;;;;;;;;22.20;99.90;;;;;;6021576;23;19931;-70
2023/07/25 11:07:13;;;;;;;;;;;22.20;99.90;;;;;;5999023;23;19931;-69
2023/07/25 11:09:40;;;;;;;;;;;22.20;99.90;;;;;;6024299;23;19933;-70
2023/07/25 11:12:06;;;;;;;;;;;22.20;99.90;;;;;;6025804;23;20316;-70
2023/07/25 11:14:38;;;;;;;;;;;22.20;99.90;;;;;;6026612;23;19961;-70
2023/07/25 11:17:04;;;;;;;;;;;22.30;99.90;;;;;;6025271;23;19936;-70
2023/07/25 11:19:30;;;;;;;;;;;22.40;99.90;;;;;;6023729;23;19930;-69
2023/07/25 11:21:55;;;;;;;;;;;22.40;99.90;;;;;;6024766;23;19926;-70
2023/07/25 11:24:21;;;;;;;;;;;22.50;99.90;;;;;;6023616;23;19924;-69
2023/07/25 11:26:47;;;;;;;;;;;22.60;99.90;;;;;;6026093;23;19924;-69
2023/07/25 11:29:13;;;;;;;;;;;22.70;99.90;;;;;;6024292;23;19933;-69
2023/07/25 11:31:44;;;;;;;;;;;22.70;99.90;;;;;;6024348;23;19932;-70
2023/07/25 11:34:11;;;;;;;;;;;22.70;99.90;;;;;;6024435;23;19980;-69
2023/07/25 11:36:38;;;;;;;;;;;22.80;99.90;;;;;;6022521;23;20031;-69
2023/07/25 11:39:04;;;;;;;;;;;22.80;99.90;;;;;;6024061;23;19929;-70
2023/07/25 11:41:31;;;;;;;;;;;22.90;99.90;;;;;;6023798;23;19934;-70
2023/07/25 11:43:57;;;;;;;;;;;23.00;99.90;;;;;;6024051;23;19957;-69
2023/07/25 11:46:23;;;;;;;;;;;23.20;99.90;;;;;;6024684;23;19927;-70
2023/07/25 11:48:48;;;;;;;;;;;23.30;99.90;;;;;;6024395;23;20101;-70
2023/07/25 11:51:14;;;;;;;;;;;23.20;99.90;;;;;;6024600;23;19925;-70
2023/07/25 11:53:40;;;;;;;;;;;23.10;99.90;;;;;;6024221;23;19986;-70
2023/07/25 11:56:05;;;;;;;;;;;23.20;99.90;;;;;;5999054;23;20360;-70
2023/07/25 11:58:31;;;;;;;;;;;23.30;99.90;;;;;;6024113;23;20513;-70
2023/07/25 12:00:56;;;;;;;;;;;23.40;99.90;;;;;;6023551;23;19928;-70
2023/07/25 12:03:23;;;;;;;;;;;23.50;99.90;;;;;;6021889;23;19929;-70
2023/07/25 12:05:59;;;;;;;;;;;23.60;99.90;;;;;;6019503;23;19923;-70
2023/07/25 12:08:31;;;;;;;;;;;23.50;99.90;;;;;;6021168;23;19935;-70
2023/07/25 12:11:07;;;;;;;;;;;23.60;99.90;;;;;;6020089;23;19924;-69
2023/07/25 12:13:41;;;;;;;;;;;23.60;99.90;;;;;;6021639;23;19950;-70
2023/07/25 12:16:06;;;;;;;;;;;23.70;99.90;;;;;;6017515;23;19925;-71
2023/07/25 12:18:34;;;;;;;;;;;23.70;99.90;;;;;;5996015;23;20545;-70
2023/07/25 12:21:00;;;;;;;;;;;23.60;99.90;;;;;;6022066;23;19950;-70
2023/07/25 12:23:28;;;;;;;;;;;23.60;99.90;;;;;;6020890;23;19925;-70
2023/07/25 12:25:54;;;;;;;;;;;23.60;99.90;;;;;;6021123;23;19952;-70
2023/07/25 12:28:21;;;;;;;;;;;23.60;99.90;;;;;;6022087;23;20481;-70
2023/07/25 12:30:46;;;;;;;;;;;23.70;99.90;;;;;;6019787;23;19957;-78
2023/07/25 12:33:12;;;;;;;;;;;23.70;99.90;;;;;;6024911;23;19931;-78
2023/07/25 12:35:37;;;;;;;;;;;23.70;99.90;;;;;;6024392;23;19929;-79
2023/07/25 12:38:03;;;;;;;;;;;23.80;99.90;;;;;;6026484;23;19929;-76
2023/07/25 12:40:28;;;;;;;;;;;23.80;99.90;;;;;;6024357;23;19926;-77
2023/07/25 12:42:54;;;;;;;;;;;23.80;99.90;;;;;;6028138;23;19929;-77
2023/07/25 12:45:19;;;;;;;;;;;23.80;99.90;;;;;;6026047;23;20031;-78
2023/07/25 12:47:45;;;;;;;;;;;23.80;99.90;;;;;;6025510;23;20578;-78
2023/07/25 12:50:10;;;;;;;;;;;23.90;99.90;;;;;;6027667;23;20009;-78
2023/07/25 12:52:36;;;;;;;;;;;23.90;99.90;;;;;;5999837;23;20016;-69
2023/07/25 12:55:01;;;;;;;;;;;23.90;99.90;;;;;;6025319;23;19959;-71
2023/07/25 12:57:29;;;;;;;;;;;24.00;99.90;;;;;;6025947;23;19959;-69
2023/07/25 12:59:55;;;;;;;;;;;23.90;99.90;;;;;;6027526;23;20264;-69
2023/07/25 13:02:20;;;;;;;;;;;23.80;99.90;;;;;;6027605;23;19933;-69
2023/07/25 13:04:46;;;;;;;;;;;23.70;99.90;;;;;;6027579;23;20497;-69
2023/07/25 13:07:11;;;;;;;;;;;23.70;99.90;;;;;;6025962;23;20810;-69
2023/07/25 13:09:37;;;;;;;;;;;23.70;99.90;;;;;;6027937;23;20320;-79
2023/07/25 13:12:02;;;;;;;;;;;23.70;99.90;;;;;;6029697;23;19943;-79
2023/07/25 13:14:28;;;;;;;;;;;23.70;99.90;;;;;;6027264;23;20015;-78
2023/07/25 13:16:53;;;;;;;;;;;23.70;99.90;;;;;;6026375;23;19955;-79
2023/07/25 13:19:19;;;;;;;;;;;23.60;99.90;;;;;;6029144;23;19973;-78
2023/07/25 13:21:44;;;;;;;;;;;23.70;99.90;;;;;;6029116;23;19929;-79
2023/07/25 13:24:10;;;;;;;;;;;23.70;99.90;;;;;;6029374;23;19939;-78
2023/07/25 13:26:35;;;;;;;;;;;23.80;99.90;;;;;;6027148;23;19945;-76
2023/07/25 13:29:01;;;;;;;;;;;23.70;99.90;;;;;;6028286;23;19924;-70
2023/07/25 13:31:26;;;;;;;;;;;23.70;99.90;;;;;;6026456;23;19925;-69
2023/07/25 13:33:52;;;;;;;;;;;23.70;99.90;;;;;;6025060;23;19959;-70
2023/07/25 13:36:17;;;;;;;;;;;23.70;99.90;;;;;;6024464;23;20061;-70
2023/07/25 13:38:43;;;;;;;;;;;23.70;99.90;;;;;;6023581;23;20018;-70
2023/07/25 13:41:08;;;;;;;;;;;23.70;99.90;;;;;;6023647;23;20536;-70
2023/07/25 13:43:34;;;;;;;;;;;23.70;99.90;;;;;;6023335;23;20271;-70
2023/07/25 13:45:59;;;;;;;;;;;23.80;99.90;;;;;;6023446;23;19944;-70
2023/07/25 13:48:25;;;;;;;;;;;23.90;99.90;;;;;;6023099;23;19925;-74
2023/07/25 13:50:51;;;;;;;;;;;23.90;99.90;;;;;;6021628;23;19989;-75
2023/07/25 13:53:16;;;;;;;;;;;24.00;99.90;;;;;;6022047;23;19929;-74
2023/07/25 13:55:42;;;;;;;;;;;24.00;99.90;;;;;;6023428;23;20008;-74
2023/07/25 13:58:07;;;;;;;;;;;24.00;99.90;;;;;;6023578;23;19920;-74
2023/07/25 14:00:33;;;;;;;;;;;23.90;99.90;;;;;;6023151;23;20029;-75
2023/07/25 14:02:58;;;;;;;;;;;23.90;99.90;;;;;;6024405;23;19943;-74
2023/07/25 14:05:24;;;;;;;;;;;23.90;99.90;;;;;;6023319;23;19930;-74
2023/07/25 14:07:49;;;;;;;;;;;23.90;99.90;;;;;;6022273;23;19945;-74
2023/07/25 14:10:15;;;;;;;;;;;23.90;99.90;;;;;;6020337;23;19993;-74